Time;durP1;ratioP1;P1;durP2;ratioP2;P2;SDS_P1;SDS_P2;PMS_P1;PMS_P2;Temp;Humidity;BMP_temperature;BMP_pressure;BME280_temperature;BME280_humidity;BME280_pressure;Samples;Min_cycle;Max_cycle;Signal;HPM_P1;HPM_P2
2022/05/11 05:02:23;;;;;;;6.80;1.98;;;17.00;96.70;;;;;;4985956;27;20474;-63
2022/05/11 05:04:51;;;;;;;7.22;2.78;;;17.00;96.60;;;;;;4990081;28;20029;-64
2022/05/11 05:07:19;;;;;;;10.98;4.45;;;17.00;96.90;;;;;;5046079;28;20148;-64
2022/05/11 05:09:46;;;;;;;13.02;4.30;;;17.00;97.10;;;;;;5020093;28;20034;-64
2022/05/11 05:12:14;;;;;;;10.68;3.85;;;17.10;97.40;;;;;;4989668;28;20569;-64
2022/05/11 05:14:44;;;;;;;9.68;4.30;;;17.10;97.90;;;;;;5017187;28;20058;-64
2022/05/11 05:17:14;;;;;;;18.13;4.20;;;17.10;97.60;;;;;;4987793;28;20034;-64
2022/05/11 05:19:43;;;;;;;11.43;3.85;;;17.10;97.60;;;;;;4996316;28;20354;-64
2022/05/11 05:22:11;;;;;;;9.95;3.90;;;17.10;97.60;;;;;;5001376;28;20391;-64
2022/05/11 05:24:38;;;;;;;12.48;3.83;;;17.20;97.70;;;;;;4969959;28;20027;-64
2022/05/11 05:27:06;;;;;;;11.18;5.07;;;17.20;97.70;;;;;;4976196;28;20043;-62
2022/05/11 05:32:20;;;;;;;9.82;3.97;;;17.20;97.70;;;;;;4970400;28;20517;-65
2022/05/11 05:34:47;;;;;;;13.23;4.45;;;17.20;97.60;;;;;;4966884;28;20483;-63
2022/05/11 05:37:16;;;;;;;12.52;4.63;;;17.20;97.60;;;;;;5002193;28;20034;-64
2022/05/11 05:39:45;;;;;;;10.73;3.72;;;17.20;97.50;;;;;;4991401;28;20118;-63
2022/05/11 05:42:23;;;;;;;9.05;4.20;;;17.10;97.40;;;;;;4986785;28;21241;-64
2022/05/11 05:44:51;;;;;;;11.10;3.65;;;17.00;97.40;;;;;;4984383;28;20474;-63
2022/05/11 05:47:18;;;;;;;10.45;4.30;;;17.00;97.40;;;;;;5027427;28;20061;-63
2022/05/11 05:49:46;;;;;;;10.25;3.67;;;17.00;97.50;;;;;;5018668;28;20107;-64
2022/05/11 05:52:22;;;;;;;9.50;4.35;;;17.00;97.60;;;;;;4973055;28;20040;-64
2022/05/11 05:54:51;;;;;;;12.80;3.95;;;16.90;97.50;;;;;;5003309;28;20688;-63
2022/05/11 05:57:19;;;;;;;14.40;4.57;;;16.90;97.50;;;;;;4974785;28;20054;-64
2022/05/11 05:59:46;;;;;;;13.90;6.57;;;16.90;97.60;;;;;;4994405;28;20040;-64
2022/05/11 06:02:16;;;;;;;18.30;6.85;;;16.90;97.70;;;;;;5071270;28;20555;-64
2022/05/11 06:04:48;;;;;;;17.58;7.15;;;16.80;97.50;;;;;;4987278;28;20063;-65
2022/05/11 06:07:17;;;;;;;25.30;9.32;;;16.80;97.70;;;;;;4983758;28;20568;-63
2022/05/11 06:09:45;;;;;;;22.00;11.88;;;16.70;97.70;;;;;;4970189;28;20038;-63
2022/05/11 06:12:15;;;;;;;12.60;6.70;;;16.70;97.80;;;;;;4973705;28;20038;-63
2022/05/11 06:14:44;;;;;;;16.52;5.47;;;16.70;97.80;;;;;;4968951;28;20101;-63
2022/05/11 06:17:20;;;;;;;7.45;5.22;;;16.70;97.90;;;;;;4958990;28;20035;-63
2022/05/11 06:19:49;;;;;;;13.27;6.50;;;16.60;98.00;;;;;;4981924;28;20060;-63
2022/05/11 06:22:16;;;;;;;14.43;5.97;;;16.60;98.00;;;;;;4955078;28;20108;-63
2022/05/11 06:24:44;;;;;;;13.73;6.22;;;16.60;98.00;;;;;;4973769;28;20097;-64
2022/05/11 06:27:17;;;;;;;20.77;7.63;;;16.60;98.00;;;;;;4979124;28;20696;-63
2022/05/11 06:29:52;;;;;;;21.37;9.07;;;16.60;98.10;;;;;;4960214;28;20035;-63
2022/05/11 06:32:19;;;;;;;;;;;16.60;98.00;;;;;;4958586;28;20019;-63
2022/05/11 06:34:46;;;;;;;19.85;10.65;;;16.50;98.00;;;;;;4978317;28;19914;-63
2022/05/11 06:37:14;;;;;;;27.17;13.85;;;16.50;98.00;;;;;;4976464;28;20080;-63
2022/05/11 06:39:41;;;;;;;26.60;14.38;;;16.50;98.10;;;;;;4984243;28;20023;-63
2022/05/11 06:42:10;;;;;;;29.13;13.80;;;16.50;98.10;;;;;;4989227;28;20027;-63
2022/05/11 06:44:37;;;;;;;29.42;13.93;;;16.50;98.10;;;;;;4966954;28;20035;-63
2022/05/11 06:47:05;;;;;;;27.02;14.60;;;16.50;98.20;;;;;;4954945;28;20031;-63
2022/05/11 06:49:34;;;;;;;28.42;14.73;;;16.40;98.20;;;;;;4964852;28;20113;-64
2022/05/11 06:52:02;;;;;;;27.77;13.32;;;16.40;98.20;;;;;;4970073;28;20031;-64
2022/05/11 06:59:59;;;;;;;21.17;11.18;;;16.40;98.40;;;;;;4956884;28;20102;-60
2022/05/11 07:02:27;;;;;;;27.80;11.70;;;16.40;98.40;;;;;;4959921;28;20022;-60
2022/05/11 07:04:54;;;;;;;25.23;11.15;;;16.40;98.50;;;;;;4959626;28;20027;-61
2022/05/11 07:07:21;;;;;;;21.33;8.48;;;16.40;98.60;;;;;;4958428;28;20038;-61
2022/05/11 07:09:48;;;;;;;24.35;9.10;;;16.40;98.60;;;;;;4959330;28;20379;-61
2022/05/11 07:12:23;;;;;;;22.30;10.20;;;16.40;98.60;;;;;;4960765;28;20049;-61
2022/05/11 07:14:58;;;;;;;23.15;11.73;;;16.40;98.60;;;;;;4956224;28;20030;-61
2022/05/11 07:17:38;;;;;;;25.95;12.43;;;16.40;98.60;;;;;;4959273;28;20076;-61
2022/05/11 07:20:10;;;;;;;30.45;12.95;;;16.30;98.60;;;;;;4952488;28;20058;-61
2022/05/11 07:22:38;;;;;;;25.40;10.82;;;16.30;98.70;;;;;;4965528;28;20413;-61
2022/05/11 07:25:08;;;;;;;22.60;8.95;;;16.30;98.70;;;;;;4956053;28;20509;-62
2022/05/11 07:27:35;;;;;;;19.55;7.50;;;16.30;98.70;;;;;;4960054;28;20030;-61
2022/05/11 07:30:05;;;;;;;17.05;8.27;;;16.30;98.70;;;;;;4958177;28;20386;-61
2022/05/11 07:32:33;;;;;;;20.17;8.05;;;16.30;98.70;;;;;;4956605;28;20498;-62
2022/05/11 07:35:00;;;;;;;16.60;7.78;;;16.30;98.80;;;;;;4953575;28;20184;-61
2022/05/11 07:37:27;;;;;;;20.42;8.10;;;16.30;98.70;;;;;;4959880;28;20080;-67
2022/05/11 07:39:56;;;;;;;20.45;7.80;;;16.20;98.80;;;;;;4960002;28;20030;-63
2022/05/11 07:42:24;;;;;;;13.20;7.00;;;16.20;98.80;;;;;;4959691;28;20018;-61
2022/05/11 07:44:52;;;;;;;26.90;8.60;;;16.20;98.80;;;;;;4958724;28;20031;-61
2022/05/11 07:47:21;;;;;;;26.20;9.18;;;16.20;98.90;;;;;;4958247;28;20027;-62
2022/05/11 07:49:48;;;;;;;23.35;11.50;;;16.30;99.10;;;;;;4959608;28;20102;-61
2022/05/11 07:52:16;;;;;;;22.98;11.68;;;16.20;99.00;;;;;;4954966;28;20026;-61
2022/05/11 07:54:44;;;;;;;26.77;10.23;;;16.20;99.00;;;;;;4962215;28;20026;-62
2022/05/11 07:59:59;;;;;;;20.25;7.95;;;16.30;99.10;;;;;;4953636;28;20502;-62
2022/05/11 08:02:35;;;;;;;26.98;9.25;;;16.30;99.10;;;;;;4961204;28;20031;-61
2022/05/11 08:05:06;;;;;;;21.05;9.27;;;16.30;99.10;;;;;;4951141;28;20487;-62
2022/05/11 08:07:39;;;;;;;30.73;11.73;;;16.30;99.10;;;;;;4959237;28;20023;-61
2022/05/11 08:10:08;;;;;;;32.60;13.07;;;16.20;99.10;;;;;;4968554;28;20022;-61
2022/05/11 08:12:36;;;;;;;29.15;13.60;;;16.20;99.00;;;;;;4973177;28;20559;-61
2022/05/11 08:15:04;;;;;;;35.40;15.20;;;16.20;99.10;;;;;;5031644;28;20384;-61
2022/05/11 08:17:35;;;;;;;29.33;16.45;;;16.20;99.10;;;;;;4994069;28;20076;-62
2022/05/11 08:20:07;;;;;;;32.92;16.00;;;16.20;99.10;;;;;;4981894;28;20121;-62
2022/05/11 08:22:35;;;;;;;33.15;14.45;;;16.20;99.10;;;;;;4985129;28;20791;-62
2022/05/11 08:25:02;;;;;;;24.50;11.20;;;16.20;99.40;;;;;;4970116;28;20031;-61
2022/05/11 08:27:30;;;;;;;23.88;9.77;;;16.20;99.20;;;;;;4961140;28;20122;-62
2022/05/11 08:35:28;;;;;;;18.17;7.88;;;16.20;99.20;;;;;;4963111;28;20106;-63
2022/05/11 08:37:57;;;;;;;24.25;8.32;;;16.20;99.20;;;;;;4956446;28;20039;-61
2022/05/11 08:40:32;;;;;;;26.35;13.15;;;16.20;99.10;;;;;;4958199;28;20030;-61
2022/05/11 08:43:02;;;;;;;25.83;10.88;;;16.10;99.10;;;;;;4959839;28;20042;-61
2022/05/11 08:45:50;;;;;;;22.85;9.68;;;16.10;99.10;;;;;;4957904;28;20475;-62
2022/05/11 08:48:29;;;;;;;28.85;10.35;;;16.20;99.20;;;;;;4953071;28;20031;-61
2022/05/11 08:50:56;;;;;;;21.67;10.05;;;16.10;99.20;;;;;;4953482;28;20026;-62
2022/05/11 08:53:43;;;;;;;31.05;11.23;;;16.10;99.20;;;;;;4953078;28;20023;-61
2022/05/11 08:56:17;;;;;;;31.42;16.17;;;16.10;99.20;;;;;;4964638;28;20038;-62
2022/05/11 08:58:52;;;;;;;35.13;14.63;;;16.20;99.30;;;;;;4955309;28;20511;-60
2022/05/11 09:01:30;;;;;;;27.77;15.07;;;16.10;99.20;;;;;;4951089;28;20846;-61
2022/05/11 09:04:00;;;;;;;38.90;15.98;;;16.10;99.30;;;;;;4953887;28;20023;-67
2022/05/11 09:06:30;;;;;;;24.67;13.38;;;16.10;99.30;;;;;;4956122;28;20035;-61
2022/05/11 09:09:01;;;;;;;32.97;14.02;;;16.20;99.30;;;;;;4951194;28;20027;-67
2022/05/11 09:11:55;;;;;;;28.38;12.90;;;16.10;99.30;;;;;;4957050;28;20043;-61
2022/05/11 09:14:41;;;;;;;22.02;11.02;;;16.20;99.30;;;;;;4963636;28;20034;-62
2022/05/11 09:17:30;;;;;;;23.40;11.05;;;16.10;99.30;;;;;;4959351;28;20088;-61
2022/05/11 09:20:14;;;;;;;21.95;9.55;;;16.10;99.30;;;;;;4961067;28;20106;-62
2022/05/11 09:23:01;;;;;;;27.20;8.55;;;16.10;99.30;;;;;;4964938;28;20038;-61
2022/05/11 09:25:37;;;;;;;16.67;7.82;;;16.20;99.30;;;;;;4963371;28;20128;-62
2022/05/11 09:28:20;;;;;;;19.38;7.80;;;16.20;99.30;;;;;;4967139;28;20023;-61
2022/05/11 09:31:27;;;;;;;13.73;6.65;;;16.10;99.30;;;;;;4961867;28;20038;-61
2022/05/11 09:33:59;;;;;;;16.77;6.88;;;16.10;99.20;;;;;;4964073;28;20036;-61
2022/05/11 09:36:42;;;;;;;11.40;6.50;;;16.10;99.20;;;;;;4956254;28;20096;-61
2022/05/11 09:39:15;;;;;;;19.38;5.85;;;16.10;99.30;;;;;;4951762;28;20035;-62
2022/05/11 09:41:51;;;;;;;17.33;6.45;;;16.10;99.20;;;;;;4964248;28;20045;-61
2022/05/11 09:44:26;;;;;;;15.65;5.88;;;16.10;99.20;;;;;;4953706;28;20720;-61
2022/05/11 09:46:55;;;;;;;15.18;6.22;;;16.00;99.20;;;;;;4963021;28;20044;-62
2022/05/11 09:49:24;;;;;;;19.65;5.78;;;16.10;99.20;;;;;;4965280;28;20031;-61
2022/05/11 09:51:54;;;;;;;13.57;5.32;;;16.00;99.20;;;;;;4961578;28;20023;-61
2022/05/11 09:54:32;;;;;;;16.17;5.95;;;16.00;99.20;;;;;;4966076;28;20025;-61
2022/05/11 09:57:01;;;;;;;14.43;6.10;;;16.00;99.20;;;;;;5005744;28;20114;-62
2022/05/11 09:59:31;;;;;;;15.07;6.40;;;16.00;99.20;;;;;;4962210;28;20041;-62
2022/05/11 10:02:22;;;;;;;13.98;7.07;;;16.00;99.30;;;;;;4970853;28;20048;-62
2022/05/11 10:04:58;;;;;;;19.17;5.78;;;16.00;99.30;;;;;;4964736;28;20023;-62
2022/05/11 10:07:28;;;;;;;14.57;6.05;;;16.00;99.20;;;;;;4965496;28;20369;-61
2022/05/11 10:10:26;;;;;;;16.45;7.10;;;16.00;99.20;;;;;;4960007;28;20029;-65
2022/05/11 10:13:00;;;;;;;12.07;7.13;;;16.00;99.20;;;;;;4976356;28;20032;-62
2022/05/11 10:24:17;;;;;;;47.33;20.95;;;16.00;99.30;;;;;;4957016;28;20457;-65
2022/05/11 10:26:53;;;;;;;36.00;18.05;;;16.00;99.30;;;;;;4962120;28;20058;-64
2022/05/11 10:29:44;;;;;;;32.15;14.30;;;15.90;99.30;;;;;;4951232;28;20039;-64
2022/05/11 10:32:24;;;;;;;33.58;13.55;;;16.00;99.30;;;;;;4967267;28;20053;-64
2022/05/11 10:35:04;;;;;;;28.30;9.10;;;16.00;99.30;;;;;;4956966;28;20023;-66
2022/05/11 10:38:16;;;;;;;19.90;8.15;;;16.00;99.30;;;;;;4968018;28;20051;-64
2022/05/11 10:40:48;;;;;;;14.40;5.82;;;16.00;99.30;;;;;;5032351;28;20044;-65
2022/05/11 10:43:43;;;;;;;17.00;6.20;;;16.00;99.30;;;;;;5019036;28;20037;-64
2022/05/11 10:46:14;;;;;;;11.20;5.28;;;16.00;99.40;;;;;;4981675;28;20050;-63
2022/05/11 10:49:04;;;;;;;17.33;5.15;;;16.00;99.40;;;;;;4953711;28;20568;-66
2022/05/11 10:51:46;;;;;;;13.65;5.72;;;16.00;99.40;;;;;;5000415;28;20040;-63
2022/05/11 10:54:19;;;;;;;17.40;5.13;;;16.00;99.40;;;;;;4956680;28;20030;-65
2022/05/11 10:57:09;;;;;;;10.60;5.82;;;16.00;99.40;;;;;;5000515;28;20022;-66
2022/05/11 11:00:06;;;;;;;18.30;6.72;;;16.00;99.40;;;;;;4955600;28;20024;-65
2022/05/11 11:02:42;;;;;;;16.05;7.13;;;16.00;99.40;;;;;;4954018;28;20824;-66
2022/05/11 11:05:19;;;;;;;24.17;6.45;;;16.00;99.40;;;;;;4961206;28;20118;-66
2022/05/11 11:08:13;;;;;;;21.50;7.07;;;16.00;99.40;;;;;;4961493;28;20438;-66
2022/05/11 11:10:52;;;;;;;17.10;6.20;;;16.00;99.40;;;;;;4968650;28;20022;-66
2022/05/11 11:13:30;;;;;;;17.05;6.30;;;16.00;99.40;;;;;;4978748;28;20566;-66
2022/05/11 11:15:58;;;;;;;13.15;5.72;;;15.90;99.30;;;;;;4959685;28;20114;-68
2022/05/11 11:18:39;;;;;;;15.45;6.55;;;16.00;99.40;;;;;;4954825;28;20030;-66
2022/05/11 11:21:09;;;;;;;17.17;5.85;;;15.90;99.30;;;;;;4960085;28;20022;-66
2022/05/11 11:23:42;;;;;;;17.50;6.40;;;16.00;99.40;;;;;;4955398;28;20582;-66
2022/05/11 11:26:11;;;;;;;15.82;5.85;;;16.00;99.40;;;;;;4960708;28;20058;-66
2022/05/11 11:28:41;;;;;;;16.88;6.47;;;16.00;99.40;;;;;;4955954;28;20027;-66
2022/05/11 11:31:14;;;;;;;15.48;6.32;;;16.00;99.40;;;;;;4961551;28;20113;-66
2022/05/11 11:34:04;;;;;;;22.38;7.93;;;15.90;99.30;;;;;;4951121;28;20039;-66
2022/05/11 11:36:41;;;;;;;19.67;6.47;;;15.90;99.40;;;;;;4977339;28;20508;-66
2022/05/11 11:39:12;;;;;;;26.75;7.78;;;15.90;99.40;;;;;;4960532;28;20047;-66
2022/05/11 11:41:42;;;;;;;21.40;7.68;;;15.90;99.40;;;;;;4953624;28;20043;-65
2022/05/11 11:44:22;;;;;;;17.77;7.53;;;15.90;99.40;;;;;;4958470;28;20055;-66
2022/05/11 11:46:50;;;;;;;18.27;6.80;;;15.90;99.40;;;;;;4960452;28;20456;-66
2022/05/11 11:49:21;;;;;;;17.45;7.10;;;16.00;99.40;;;;;;4958083;28;20089;-65
2022/05/11 11:52:02;;;;;;;20.25;7.65;;;15.90;99.40;;;;;;4953491;28;20149;-66
2022/05/11 11:54:38;;;;;;;18.98;7.45;;;15.90;99.40;;;;;;4961117;28;20403;-66
2022/05/11 11:57:24;;;;;;;18.13;7.10;;;15.90;99.40;;;;;;4957136;28;20601;-66
2022/05/11 11:59:57;;;;;;;19.45;7.18;;;15.90;99.40;;;;;;4970664;28;20031;-66
2022/05/11 12:02:29;;;;;;;14.27;6.28;;;15.90;99.40;;;;;;4951904;28;20032;-66
2022/05/11 12:05:08;;;;;;;19.58;7.03;;;15.90;99.40;;;;;;4976726;28;20406;-66
2022/05/11 12:16:17;;;;;;;23.65;9.60;;;15.90;99.30;;;;;;4949026;28;20054;-66
2022/05/11 12:18:46;;;;;;;27.38;10.32;;;15.90;99.30;;;;;;4958860;28;20422;-66
2022/05/11 12:21:36;;;;;;;24.17;9.00;;;15.80;99.30;;;;;;4948133;28;20414;-66
2022/05/11 12:24:07;;;;;;;28.60;9.18;;;15.80;99.30;;;;;;4962800;28;20094;-66
2022/05/11 12:26:38;;;;;;;23.27;10.73;;;15.80;99.40;;;;;;4955720;28;20114;-65
2022/05/11 12:31:56;;;;;;;22.00;9.85;;;15.80;99.40;;;;;;4953270;28;20116;-65
2022/05/11 12:34:30;;;;;;;24.60;10.68;;;15.80;99.40;;;;;;4959019;28;20019;-66
2022/05/11 12:36:58;;;;;;;34.90;10.27;;;15.80;99.40;;;;;;4956779;28;20387;-68
2022/05/11 12:39:36;;;;;;;25.08;10.52;;;15.80;99.40;;;;;;4966271;28;20039;-66
2022/05/11 12:42:07;;;;;;;27.45;11.68;;;15.80;99.40;;;;;;4951433;28;20035;-66
2022/05/11 12:44:38;;;;;;;23.27;10.55;;;15.80;99.50;;;;;;4965063;28;20410;-65
2022/05/11 12:47:07;;;;;;;21.77;10.23;;;15.80;99.50;;;;;;4972368;28;20034;-65
2022/05/11 12:49:34;;;;;;;26.25;10.95;;;15.80;99.50;;;;;;4951157;28;20038;-65
2022/05/11 12:52:05;;;;;;;29.10;11.15;;;15.80;99.50;;;;;;4963072;28;20033;-65
2022/05/11 12:54:33;;;;;;;29.48;11.75;;;15.80;99.50;;;;;;4956497;28;20034;-65
2022/05/11 12:57:11;;;;;;;32.50;13.25;;;15.80;99.50;;;;;;5011829;28;20024;-65
2022/05/11 12:59:42;;;;;;;29.55;14.77;;;15.80;99.50;;;;;;4957027;28;20081;-65
2022/05/11 13:02:26;;;;;;;44.97;14.13;;;15.90;99.50;;;;;;4969852;28;20059;-65
2022/05/11 13:04:56;;;;;;;37.30;15.75;;;15.80;99.70;;;;;;4957560;28;20041;-66
2022/05/11 13:07:51;;;;;;;36.95;15.05;;;15.90;99.60;;;;;;4955445;28;20023;-66
2022/05/11 13:10:25;;;;;;;36.88;15.45;;;15.90;99.60;;;;;;4961162;28;20537;-65
2022/05/11 13:12:56;;;;;;;29.27;14.93;;;15.90;99.60;;;;;;4983498;28;20059;-65
2022/05/11 13:15:32;;;;;;;30.73;15.10;;;15.90;99.60;;;;;;4957900;28;20035;-65
2022/05/11 13:18:00;;;;;;;42.22;16.92;;;15.90;99.60;;;;;;4958491;28;20011;-66
2022/05/11 13:20:32;;;;;;;44.83;18.60;;;15.90;99.70;;;;;;4968373;28;20027;-66
2022/05/11 13:23:01;;;;;;;42.45;18.00;;;15.90;99.70;;;;;;4962302;28;20026;-66
2022/05/11 13:26:02;;;;;;;42.65;17.48;;;15.90;99.80;;;;;;4971542;28;20562;-67
2022/05/11 13:28:38;;;;;;;40.28;17.63;;;15.90;99.70;;;;;;4997569;28;20125;-65
2022/05/11 13:31:30;;;;;;;40.25;16.05;;;15.90;99.90;;;;;;4964809;28;20058;-65
2022/05/11 13:33:58;;;;;;;33.30;14.27;;;15.90;99.60;;;;;;4978226;28;20463;-66
2022/05/11 13:36:41;;;;;;;31.80;13.75;;;15.80;99.60;;;;;;4967255;28;20035;-65
2022/05/11 13:39:12;;;;;;;31.48;14.07;;;15.90;99.60;;;;;;4957816;28;20034;-65
2022/05/11 13:41:49;;;;;;;39.40;14.05;;;15.90;99.60;;;;;;4974381;28;20130;-65
2022/05/11 13:44:37;;;;;;;33.88;14.20;;;15.90;99.60;;;;;;4951773;29;20040;-65
2022/05/11 13:50:48;;;;;;;31.60;13.55;;;15.80;99.60;;;;;;4951978;29;20042;-66
2022/05/11 13:53:33;;;;;;;31.67;14.05;;;15.90;99.60;;;;;;4990654;28;20030;-65
2022/05/11 13:56:09;;;;;;;31.52;13.07;;;15.90;99.60;;;;;;4979285;28;20027;-66
2022/05/11 13:58:43;;;;;;;33.42;12.88;;;15.80;99.50;;;;;;4970742;28;20027;-65
2022/05/11 14:01:16;;;;;;;30.02;13.38;;;15.80;99.50;;;;;;4970032;28;20053;-65
2022/05/11 14:03:52;;;;;;;33.90;13.35;;;15.80;99.50;;;;;;4969124;28;20089;-65
2022/05/11 14:06:25;;;;;;;39.15;14.68;;;15.70;99.40;;;;;;4953833;28;20115;-65
2022/05/11 14:08:52;;;;;;;38.13;14.10;;;15.70;99.50;;;;;;4965730;28;20031;-65
2022/05/11 14:11:21;;;;;;;43.50;15.48;;;15.70;99.50;;;;;;4970071;28;20506;-65
2022/05/11 14:13:50;;;;;;;44.67;15.32;;;15.70;99.50;;;;;;4970037;28;20023;-65
2022/05/11 14:16:30;;;;;;;40.33;15.75;;;15.70;99.50;;;;;;4964281;28;20596;-66
2022/05/11 14:18:59;;;;;;;40.72;14.77;;;15.70;99.50;;;;;;4961772;28;20054;-67
2022/05/11 14:21:27;;;;;;;47.28;15.90;;;15.70;99.50;;;;;;4950640;28;20117;-66
2022/05/11 14:23:55;;;;;;;40.22;14.75;;;15.70;99.50;;;;;;4959211;28;20486;-66
2022/05/11 14:26:22;;;;;;;44.70;15.82;;;15.60;99.50;;;;;;4970002;28;20038;-66
2022/05/11 14:28:50;;;;;;;42.10;15.90;;;15.60;99.50;;;;;;4969997;28;20029;-66
2022/05/11 14:31:18;;;;;;;40.30;15.48;;;15.70;99.60;;;;;;4970086;28;20510;-66
2022/05/11 14:33:53;;;;;;;38.67;14.07;;;15.60;99.50;;;;;;4955593;28;20066;-66
2022/05/11 14:36:20;;;;;;;49.42;14.75;;;15.60;99.60;;;;;;4965483;28;20108;-67
2022/05/11 14:38:47;;;;;;;42.70;14.70;;;15.60;99.60;;;;;;4972868;28;20026;-66
2022/05/11 14:41:15;;;;;;;38.92;13.75;;;15.60;99.50;;;;;;4989131;28;20466;-66
2022/05/11 14:43:42;;;;;;;41.15;13.95;;;15.60;99.50;;;;;;4979383;28;20433;-66
2022/05/11 14:46:20;;;;;;;43.25;14.55;;;15.60;99.60;;;;;;4968271;28;20414;-66
2022/05/11 14:48:48;;;;;;;47.58;16.02;;;15.60;99.60;;;;;;4957691;28;20031;-66
2022/05/11 14:51:16;;;;;;;44.25;15.27;;;15.60;99.60;;;;;;4965598;28;20085;-66
2022/05/11 14:53:47;;;;;;;51.50;15.48;;;15.60;99.60;;;;;;4969767;28;20108;-66
2022/05/11 14:56:16;;;;;;;45.88;17.13;;;15.60;99.60;;;;;;4961993;28;20019;-66
2022/05/11 15:04:31;;;;;;;45.70;16.50;;;15.60;99.80;;;;;;4968254;28;20034;-65
2022/05/11 15:06:58;;;;;;;57.70;16.98;;;15.60;99.70;;;;;;4953605;28;20138;-66
2022/05/11 15:09:27;;;;;;;59.22;18.38;;;15.60;99.70;;;;;;4969768;28;20031;-66
2022/05/11 15:14:41;;;;;;;52.92;18.45;;;15.60;99.70;;;;;;4964653;28;20041;-65
2022/05/11 15:17:16;;;;;;;64.55;17.00;;;15.60;99.70;;;;;;4969409;28;20061;-65
2022/05/11 15:19:44;;;;;;;64.40;19.70;;;15.60;99.70;;;;;;4969294;28;20035;-65
2022/05/11 15:22:11;;;;;;;60.22;20.45;;;15.60;99.70;;;;;;4961459;28;20122;-66
2022/05/11 15:24:38;;;;;;;59.85;18.33;;;15.70;99.80;;;;;;4960723;28;20027;-66
2022/05/11 15:27:06;;;;;;;57.72;18.50;;;15.60;99.70;;;;;;4986015;28;20027;-65
2022/05/11 15:29:33;;;;;;;51.85;17.27;;;15.60;99.70;;;;;;4958186;28;20027;-66
2022/05/11 15:32:08;;;;;;;51.50;17.13;;;15.70;99.70;;;;;;4955636;28;20027;-66
2022/05/11 15:34:37;;;;;;;47.65;16.67;;;15.70;99.70;;;;;;4969183;28;20084;-66
2022/05/11 15:37:05;;;;;;;53.38;15.88;;;15.60;99.60;;;;;;4955985;28;20031;-66
2022/05/11 15:39:33;;;;;;;44.05;15.48;;;15.70;99.70;;;;;;4949050;28;20034;-66
2022/05/11 15:42:01;;;;;;;44.53;16.40;;;15.70;99.60;;;;;;4954533;28;20039;-66
2022/05/11 15:44:29;;;;;;;52.03;16.20;;;15.70;99.60;;;;;;4968408;28;20035;-67
2022/05/11 15:46:56;;;;;;;50.10;16.08;;;15.60;99.60;;;;;;4962419;28;20046;-65
2022/05/11 15:49:23;;;;;;;45.88;16.17;;;15.60;99.50;;;;;;4975243;28;20027;-64
2022/05/11 15:51:51;;;;;;;46.63;14.40;;;15.60;99.60;;;;;;4988198;28;20054;-64
2022/05/11 15:54:21;;;;;;;42.20;14.93;;;15.60;99.60;;;;;;4988251;28;20687;-64
2022/05/11 15:56:49;;;;;;;44.83;14.45;;;15.60;99.60;;;;;;4969488;28;20027;-64
2022/05/11 15:59:16;;;;;;;41.13;15.10;;;15.60;99.60;;;;;;4952369;28;20133;-64
2022/05/11 16:01:45;;;;;;;35.45;12.40;;;15.60;99.60;;;;;;4948072;28;20055;-65
2022/05/11 16:04:13;;;;;;;36.33;12.63;;;15.60;99.60;;;;;;4961635;28;20035;-64
2022/05/11 16:06:41;;;;;;;34.58;13.88;;;15.60;99.60;;;;;;4957690;28;20022;-65
2022/05/11 16:09:10;;;;;;;33.08;13.63;;;15.60;99.60;;;;;;4968289;28;20030;-65
2022/05/11 16:11:42;;;;;;;33.72;12.73;;;15.60;99.60;;;;;;4963310;28;20035;-64
2022/05/11 16:14:11;;;;;;;31.83;11.38;;;15.60;99.60;;;;;;4986667;28;20121;-64
2022/05/11 16:16:40;;;;;;;34.85;11.45;;;15.60;99.60;;;;;;5024592;28;20028;-65
2022/05/11 16:21:54;;;;;;;29.95;10.40;;;15.60;99.60;;;;;;4955615;28;20149;-64
2022/05/11 16:24:22;;;;;;;33.53;11.23;;;15.60;99.60;;;;;;4957093;28;20483;-64
2022/05/11 16:26:49;;;;;;;31.00;10.00;;;15.60;99.60;;;;;;4951300;28;20479;-64
2022/05/11 16:29:22;;;;;;;30.50;10.25;;;15.50;99.50;;;;;;4952541;28;20080;-64
2022/05/11 16:31:54;;;;;;;35.97;11.43;;;15.50;99.50;;;;;;4953433;28;20513;-64
2022/05/11 16:34:23;;;;;;;30.52;10.43;;;15.50;99.50;;;;;;4967036;28;20037;-64
2022/05/11 16:36:50;;;;;;;43.75;12.77;;;15.50;99.50;;;;;;4959070;28;20026;-64
2022/05/11 16:39:22;;;;;;;40.20;12.43;;;15.50;99.50;;;;;;4950798;28;20023;-64
2022/05/11 16:41:56;;;;;;;39.72;12.50;;;15.50;99.50;;;;;;4948744;28;20387;-64
2022/05/11 16:44:24;;;;;;;41.88;12.40;;;15.50;99.50;;;;;;4968116;28;20356;-64
2022/05/11 16:46:53;;;;;;;36.97;11.90;;;15.50;99.50;;;;;;4968049;28;20056;-65
2022/05/11 16:49:20;;;;;;;44.33;13.00;;;15.50;99.50;;;;;;4975551;28;20026;-64
2022/05/11 16:51:48;;;;;;;46.78;12.75;;;15.50;99.60;;;;;;4961765;28;20019;-64
2022/05/11 16:54:15;;;;;;;36.70;12.65;;;15.50;99.60;;;;;;4958550;28;20045;-64
2022/05/11 16:56:42;;;;;;;40.22;12.60;;;15.60;99.70;;;;;;4963950;28;20502;-64
2022/05/11 16:59:10;;;;;;;44.33;13.85;;;15.50;99.60;;;;;;4947457;28;20128;-64
2022/05/11 17:01:37;;;;;;;32.72;11.77;;;15.50;99.60;;;;;;4952516;28;20365;-65
2022/05/11 17:04:05;;;;;;;37.72;12.60;;;15.50;99.50;;;;;;4951304;28;20027;-65
2022/05/11 17:06:32;;;;;;;39.10;13.43;;;15.60;99.60;;;;;;4961329;28;21697;-65
2022/05/11 17:09:00;;;;;;;45.70;12.88;;;15.60;99.60;;;;;;4956800;28;20019;-66
2022/05/11 17:11:27;;;;;;;38.30;13.00;;;15.50;99.60;;;;;;4947856;28;20097;-65
2022/05/11 17:13:54;;;;;;;43.83;12.65;;;15.60;99.60;;;;;;4955010;28;20023;-65
2022/05/11 17:16:21;;;;;;;50.88;14.35;;;15.50;99.60;;;;;;4949853;28;20093;-65
2022/05/11 17:18:49;;;;;;;46.83;13.95;;;15.60;99.60;;;;;;4963822;28;20390;-65
2022/05/11 17:21:16;;;;;;;52.67;15.65;;;15.50;99.50;;;;;;4964436;28;20043;-65
2022/05/11 17:23:43;;;;;;;57.50;16.50;;;15.60;99.60;;;;;;4946756;28;21153;-65
2022/05/11 17:26:11;;;;;;;49.92;15.98;;;15.50;99.50;;;;;;4955292;28;20037;-65
2022/05/11 17:28:38;;;;;;;54.28;16.85;;;15.50;99.80;;;;;;4955221;28;20068;-65
2022/05/11 17:31:05;;;;;;;48.47;16.95;;;15.50;99.50;;;;;;4954301;28;20035;-65
2022/05/11 17:33:32;;;;;;;56.83;16.60;;;15.50;99.50;;;;;;4947524;28;20023;-65
2022/05/11 17:36:00;;;;;;;44.88;16.55;;;15.50;99.60;;;;;;4950803;28;20089;-65
2022/05/11 17:38:27;;;;;;;53.72;18.85;;;15.60;99.60;;;;;;4964449;28;20119;-65
2022/05/11 17:40:54;;;;;;;54.72;17.90;;;15.60;99.60;;;;;;4952214;28;20091;-65
2022/05/11 17:43:22;;;;;;;55.33;17.05;;;15.50;99.60;;;;;;4965346;28;20035;-65
2022/05/11 17:45:50;;;;;;;45.38;16.17;;;15.60;99.60;;;;;;4948216;28;20020;-65
2022/05/11 17:48:18;;;;;;;45.30;14.85;;;15.50;99.60;;;;;;4961783;28;20088;-65
2022/05/11 17:50:46;;;;;;;46.15;15.90;;;15.60;99.70;;;;;;4981130;28;20046;-65
2022/05/11 17:53:14;;;;;;;37.55;15.18;;;15.60;99.70;;;;;;4948435;28;20066;-65
2022/05/11 17:55:43;;;;;;;43.25;14.55;;;15.60;99.60;;;;;;4957096;28;20023;-65
2022/05/11 17:58:11;;;;;;;33.78;12.65;;;15.60;99.70;;;;;;4952299;28;20427;-65
2022/05/11 18:00:38;;;;;;;28.98;11.35;;;15.60;99.70;;;;;;4961879;28;20453;-65
2022/05/11 18:03:06;;;;;;;33.67;10.85;;;15.60;99.70;;;;;;4961328;28;20023;-65
2022/05/11 18:05:34;;;;;;;33.10;11.77;;;15.60;99.60;;;;;;4955377;28;20462;-66
2022/05/11 18:08:02;;;;;;;35.42;12.13;;;15.60;99.60;;;;;;4957980;28;20541;-65
2022/05/11 18:10:31;;;;;;;34.45;10.77;;;15.60;99.60;;;;;;4957196;28;20091;-65
2022/05/11 18:13:00;;;;;;;26.67;10.50;;;15.60;99.60;;;;;;4964808;28;20019;-65
2022/05/11 18:15:29;;;;;;;24.75;9.57;;;15.60;99.60;;;;;;4968950;28;20030;-66
2022/05/11 18:18:02;;;;;;;24.10;8.73;;;15.60;99.60;;;;;;4956871;28;20096;-65
2022/05/11 18:20:33;;;;;;;20.17;9.00;;;15.60;99.60;;;;;;4968745;28;20055;-65
2022/05/11 18:23:00;;;;;;;25.67;8.80;;;15.60;99.60;;;;;;4967939;28;20023;-65
2022/05/11 18:25:28;;;;;;;24.38;10.20;;;15.60;99.70;;;;;;4959565;28;20472;-65
2022/05/11 18:27:57;;;;;;;27.88;10.52;;;15.60;99.70;;;;;;4961554;28;20536;-64
2022/05/11 18:30:24;;;;;;;30.00;10.88;;;15.60;99.70;;;;;;4961821;28;20035;-65
2022/05/11 18:32:52;;;;;;;34.10;12.07;;;15.70;99.80;;;;;;4957092;28;20529;-64
2022/05/11 18:35:21;;;;;;;27.90;11.63;;;15.70;99.90;;;;;;4951513;28;20042;-65
2022/05/11 18:37:49;;;;;;;26.45;10.40;;;15.70;99.80;;;;;;4955978;28;20130;-63
2022/05/11 18:40:18;;;;;;;28.13;11.95;;;15.70;99.80;;;;;;4958842;28;20034;-64
2022/05/11 18:42:45;;;;;;;28.63;13.45;;;15.70;99.80;;;;;;4967413;28;20062;-64
2022/05/11 18:45:14;;;;;;;29.00;15.85;;;15.70;99.80;;;;;;4966411;28;20479;-64
2022/05/11 18:47:41;;;;;;;33.08;16.35;;;15.80;99.80;;;;;;4950998;28;20042;-64